createdAt,value
2017-11-10T00:01:25.577Z,34.50
2017-11-10T00:03:53.244Z,37.15
2017-11-10T00:06:20.887Z,38.35
2017-11-10T00:08:48.736Z,31.05
2017-11-10T00:11:17.160Z,31.83
2017-11-10T00:13:44.950Z,28.58
2017-11-10T00:16:12.581Z,32.38
2017-11-10T00:18:40.256Z,30.27
2017-11-10T00:21:08.361Z,25.42
2017-11-10T00:23:36.031Z,23.55
2017-11-10T00:26:03.687Z,27.62
2017-11-10T00:28:31.344Z,29.00
2017-11-10T00:30:59.122Z,29.67
2017-11-10T00:33:26.777Z,32.58
2017-11-10T00:35:54.462Z,23.52
2017-11-10T00:38:22.083Z,24.42
2017-11-10T00:40:49.723Z,26.65
2017-11-10T00:43:18.176Z,25.75
2017-11-10T00:45:45.796Z,19.45
2017-11-10T00:48:13.497Z,28.62
2017-11-10T00:50:41.250Z,27.05
2017-11-10T00:53:08.940Z,25.73
2017-11-10T00:55:36.611Z,31.27
2017-11-10T00:58:04.364Z,27.05
2017-11-10T01:00:32.002Z,30.83
2017-11-10T01:02:59.638Z,29.40
2017-11-10T01:05:27.330Z,27.17
2017-11-10T01:07:55.882Z,25.92
2017-11-10T01:10:23.597Z,31.48
2017-11-10T01:12:51.310Z,29.73
2017-11-10T01:15:19.026Z,27.15
2017-11-10T01:17:48.177Z,34.67
2017-11-10T01:20:15.841Z,28.65
2017-11-10T01:22:43.691Z,37.47
2017-11-10T01:25:11.436Z,30.27
2017-11-10T01:27:39.156Z,32.20
2017-11-10T01:30:06.919Z,40.92
2017-11-10T01:32:34.702Z,40.47
2017-11-10T01:35:02.361Z,44.33
2017-11-10T01:37:30.128Z,48.03
2017-11-10T01:39:57.733Z,39.97
2017-11-10T01:42:26.124Z,55.88
2017-11-10T01:44:53.786Z,52.17
2017-11-10T01:47:21.467Z,52.10
2017-11-10T01:49:53.980Z,54.70
2017-11-10T01:52:21.602Z,53.13
2017-11-10T01:54:49.316Z,43.85
2017-11-10T01:57:16.992Z,47.03
2017-11-10T01:59:45.828Z,42.45
2017-11-10T02:02:13.485Z,49.65
2017-11-10T02:04:41.175Z,49.22
2017-11-10T02:07:08.815Z,57.47
2017-11-10T02:09:36.584Z,47.50
2017-11-10T02:12:04.345Z,48.87
2017-11-10T02:14:33.607Z,47.80
2017-11-10T02:17:02.014Z,45.60
2017-11-10T02:19:29.821Z,53.38
2017-11-10T02:21:58.364Z,40.40
2017-11-10T02:24:26.169Z,43.70
2017-11-10T02:26:54.711Z,49.78
2017-11-10T02:29:22.356Z,44.17
2017-11-10T02:31:50.041Z,47.45
2017-11-10T02:34:17.721Z,54.08
2017-11-10T02:36:45.526Z,39.65
2017-11-10T02:39:14.139Z,47.42
2017-11-10T02:41:47.612Z,52.78
2017-11-10T02:44:15.321Z,52.88
2017-11-10T02:46:42.990Z,46.90
2017-11-10T02:49:10.738Z,48.08
2017-11-10T02:51:38.379Z,56.83
2017-11-10T02:54:06.061Z,54.30
2017-11-10T02:56:33.676Z,59.85
2017-11-10T02:59:02.119Z,52.53
2017-11-10T03:01:29.821Z,60.80
2017-11-10T03:03:58.428Z,55.00
2017-11-10T03:06:26.083Z,63.58
2017-11-10T03:08:53.775Z,62.83
2017-11-10T03:11:21.428Z,58.63
2017-11-10T03:13:49.142Z,68.37
2017-11-10T03:16:17.776Z,61.63
2017-11-10T03:18:45.419Z,80.28
2017-11-10T03:21:13.080Z,78.80
2017-11-10T03:23:40.822Z,64.70
2017-11-10T03:26:08.396Z,86.05
2017-11-10T03:28:36.077Z,86.95
2017-11-10T03:31:03.716Z,83.43
2017-11-10T03:33:31.388Z,92.78
2017-11-10T03:35:59.066Z,100.05
2017-11-10T03:38:26.740Z,88.53
2017-11-10T03:40:54.414Z,87.20
2017-11-10T03:43:22.279Z,86.28
2017-11-10T03:45:49.921Z,79.82
2017-11-10T03:48:17.601Z,78.20
2017-11-10T03:50:45.372Z,86.55
2017-11-10T03:53:12.992Z,85.32
2017-11-10T03:55:40.669Z,81.78
2017-11-10T03:58:08.355Z,76.20
2017-11-10T04:00:36.016Z,88.75
2017-11-10T04:03:03.813Z,74.82
2017-11-10T04:05:31.486Z,76.95
2017-11-10T04:08:00.038Z,92.65
2017-11-10T04:10:27.740Z,84.72
2017-11-10T04:12:56.208Z,91.37
2017-11-10T04:15:24.658Z,85.82
2017-11-10T04:17:52.325Z,100.87
2017-11-10T04:20:19.981Z,82.03
2017-11-10T04:22:47.736Z,86.72
2017-11-10T04:25:15.393Z,69.87
2017-11-10T04:27:43.031Z,71.37
2017-11-10T04:30:10.698Z,80.47
2017-11-10T04:32:38.382Z,84.15
2017-11-10T04:35:06.038Z,83.60
2017-11-10T04:37:33.728Z,78.53
2017-11-10T04:40:01.388Z,79.22
2017-11-10T04:42:29.050Z,83.03
2017-11-10T04:44:56.724Z,80.65
2017-11-10T04:47:24.507Z,88.90
2017-11-10T04:49:52.928Z,83.10
2017-11-10T04:52:21.007Z,82.07
2017-11-10T04:54:48.858Z,92.12
2017-11-10T04:57:16.547Z,87.57
2017-11-10T04:59:44.182Z,84.82
2017-11-10T05:02:11.842Z,87.12
2017-11-10T05:04:39.482Z,74.10
2017-11-10T05:07:07.099Z,91.18
2017-11-10T05:09:35.004Z,87.57
2017-11-10T05:12:03.485Z,93.53
2017-11-10T05:14:31.860Z,85.68
2017-11-10T05:17:00.279Z,79.57
2017-11-10T05:19:27.943Z,79.62
2017-11-10T05:21:55.640Z,78.97
2017-11-10T05:24:23.379Z,92.30
2017-11-10T05:26:51.018Z,72.20
2017-11-10T05:29:18.718Z,84.53
2017-11-10T05:31:46.386Z,79.12
2017-11-10T05:34:14.036Z,94.87
2017-11-10T05:36:41.829Z,95.32
2017-11-10T05:39:10.262Z,89.10
2017-11-10T05:41:37.995Z,84.93
2017-11-10T05:44:05.618Z,104.20
2017-11-10T05:46:33.346Z,92.07
2017-11-10T05:49:01.163Z,88.10
2017-11-10T05:51:28.840Z,100.47
2017-11-10T05:53:56.846Z,92.90
2017-11-10T05:56:24.507Z,100.80
2017-11-10T05:58:52.269Z,105.53
2017-11-10T06:01:20.875Z,93.12
2017-11-10T06:03:48.955Z,84.95
2017-11-10T06:06:17.370Z,93.15
2017-11-10T06:08:45.072Z,103.22
2017-11-10T06:11:13.582Z,83.30
2017-11-10T06:13:41.268Z,76.28
2017-11-10T06:16:08.869Z,86.87
2017-11-10T06:18:36.495Z,90.60
2017-11-10T06:21:05.737Z,86.97
2017-11-10T06:23:33.584Z,72.43
2017-11-10T06:26:01.217Z,77.87
2017-11-10T06:28:29.758Z,80.65
2017-11-10T06:30:57.526Z,86.28
2017-11-10T06:33:25.213Z,90.53
2017-11-10T06:35:53.634Z,87.47
2017-11-10T06:38:21.280Z,84.32
2017-11-10T06:40:49.043Z,89.68
2017-11-10T06:43:18.034Z,80.05
2017-11-10T06:45:45.684Z,76.70
2017-11-10T06:48:13.475Z,78.30
2017-11-10T06:50:41.221Z,82.40
2017-11-10T06:53:08.927Z,78.53
2017-11-10T06:55:36.666Z,79.68
2017-11-10T06:58:04.349Z,84.45
2017-11-10T07:00:32.035Z,78.10
2017-11-10T07:02:59.680Z,83.85
2017-11-10T07:05:27.400Z,80.28
2017-11-10T07:07:55.187Z,90.12
2017-11-10T07:10:22.876Z,81.43
2017-11-10T07:12:50.616Z,97.05
2017-11-10T07:15:18.422Z,83.93
2017-11-10T07:17:46.175Z,79.90
2017-11-10T07:20:13.830Z,67.57
2017-11-10T07:22:41.588Z,79.20
2017-11-10T07:25:09.353Z,82.85
2017-11-10T07:27:37.080Z,81.03
2017-11-10T07:30:05.522Z,75.35
2017-11-10T07:32:33.242Z,76.10
2017-11-10T07:35:00.972Z,98.57
2017-11-10T07:37:28.708Z,79.32
2017-11-10T07:39:56.447Z,72.10
2017-11-10T07:42:24.329Z,78.82
2017-11-10T07:44:52.022Z,81.80
2017-11-10T07:47:19.839Z,74.32
2017-11-10T07:49:47.645Z,76.90
2017-11-10T07:52:15.300Z,60.55
2017-11-10T07:54:44.790Z,73.60
2017-11-10T07:57:12.518Z,74.97
2017-11-10T07:59:40.320Z,74.32
2017-11-10T08:02:08.041Z,77.78
2017-11-10T08:04:35.737Z,88.87
2017-11-10T08:07:03.367Z,69.68
2017-11-10T08:09:31.481Z,73.62
2017-11-10T08:11:59.163Z,67.35
2017-11-10T08:14:27.525Z,67.85
2017-11-10T08:16:55.138Z,57.45
2017-11-10T08:19:23.629Z,54.35
2017-11-10T08:21:52.028Z,54.50
2017-11-10T08:24:19.764Z,65.65
2017-11-10T08:26:48.284Z,56.95
2017-11-10T08:29:15.936Z,57.80
2017-11-10T08:31:43.600Z,60.78
2017-11-10T08:34:11.205Z,55.92
2017-11-10T08:36:39.651Z,63.03
2017-11-10T08:39:07.258Z,53.90
2017-11-10T08:41:35.867Z,50.42
2017-11-10T08:44:03.472Z,63.70
2017-11-10T08:46:31.069Z,53.60
2017-11-10T08:48:58.677Z,56.50
2017-11-10T08:51:26.377Z,57.47
2017-11-10T08:53:54.093Z,58.80
2017-11-10T08:56:21.722Z,50.38
2017-11-10T08:58:49.792Z,49.80
2017-11-10T09:01:18.411Z,54.28
2017-11-10T09:03:46.807Z,47.88
2017-11-10T09:06:15.205Z,45.05
2017-11-10T09:08:42.980Z,50.35
2017-11-10T09:11:11.410Z,46.50
2017-11-10T09:13:39.224Z,50.03
2017-11-10T09:16:06.873Z,43.80
2017-11-10T09:18:35.329Z,40.45
2017-11-10T09:21:03.010Z,34.40
2017-11-10T09:23:30.752Z,44.05
2017-11-10T09:25:59.275Z,42.58
2017-11-10T09:31:35.422Z,35.92
2017-11-10T09:37:15.526Z,31.87
2017-11-10T09:40:00.730Z,28.48
2017-11-10T09:42:34.080Z,30.02
2017-11-10T09:45:15.628Z,33.22
2017-11-10T09:47:49.043Z,29.55
2017-11-10T09:50:22.418Z,29.67
2017-11-10T09:52:56.678Z,26.58
2017-11-10T09:55:24.514Z,30.00
2017-11-10T10:01:07.789Z,36.08
2017-11-10T10:03:39.056Z,36.92
2017-11-10T10:06:10.222Z,34.22
2017-11-10T10:08:43.518Z,39.80
2017-11-10T10:11:12.132Z,38.65
2017-11-10T10:13:44.151Z,36.50
2017-11-10T10:16:15.436Z,40.17
2017-11-10T10:18:53.804Z,36.45
2017-11-10T10:21:27.848Z,41.50
2017-11-10T10:23:55.487Z,37.42
2017-11-10T10:26:23.182Z,32.83
2017-11-10T10:28:50.798Z,39.83
2017-11-10T10:31:19.196Z,44.13
2017-11-10T10:33:46.778Z,39.08
2017-11-10T10:36:14.544Z,29.75
2017-11-10T10:38:42.206Z,35.60
2017-11-10T10:41:09.936Z,37.80
2017-11-10T10:43:37.667Z,42.45
2017-11-10T10:46:05.279Z,40.80
2017-11-10T10:48:33.013Z,35.15
2017-11-10T10:51:00.660Z,40.17
2017-11-10T10:53:28.281Z,32.53
2017-11-10T10:55:56.008Z,36.80
2017-11-10T10:58:23.909Z,36.92
2017-11-10T11:00:51.558Z,36.13
2017-11-10T11:03:19.266Z,36.85
2017-11-10T11:05:46.939Z,36.78
2017-11-10T11:08:15.380Z,35.90
2017-11-10T11:10:43.020Z,41.35
2017-11-10T11:13:10.673Z,36.45
2017-11-10T11:15:38.337Z,41.47
2017-11-10T11:18:06.261Z,38.38
2017-11-10T11:20:34.655Z,40.05
2017-11-10T11:23:03.088Z,40.33
2017-11-10T11:25:30.843Z,35.65
2017-11-10T11:27:58.451Z,37.63
2017-11-10T11:30:26.117Z,41.30
2017-11-10T11:32:54.496Z,37.58
2017-11-10T11:35:22.122Z,33.67
2017-11-10T11:37:49.799Z,32.55
2017-11-10T11:40:17.485Z,41.25
2017-11-10T11:42:46.407Z,42.00
2017-11-10T11:45:14.049Z,43.85
2017-11-10T11:47:41.757Z,37.80
2017-11-10T11:50:09.465Z,45.78
2017-11-10T11:52:37.889Z,36.08
2017-11-10T11:55:05.590Z,47.33
2017-11-10T11:57:33.469Z,42.03
2017-11-10T12:00:01.879Z,45.50
2017-11-10T12:02:29.587Z,39.67
2017-11-10T12:04:57.210Z,33.95
2017-11-10T12:07:24.938Z,35.35
2017-11-10T12:09:52.631Z,35.67
2017-11-10T12:12:20.433Z,37.35
2017-11-10T12:14:48.202Z,42.05
2017-11-10T12:17:16.107Z,34.60
2017-11-10T12:19:43.797Z,39.00
2017-11-10T12:22:11.717Z,36.65
2017-11-10T12:24:39.529Z,42.15
2017-11-10T12:27:07.242Z,29.67
2017-11-10T12:29:34.843Z,33.65
2017-11-10T12:32:02.536Z,38.45
2017-11-10T12:34:30.371Z,30.73
2017-11-10T12:36:58.026Z,46.15
2017-11-10T12:39:25.656Z,27.80
2017-11-10T12:41:54.108Z,26.65
2017-11-10T12:44:21.758Z,24.80
2017-11-10T12:46:49.489Z,18.90
2017-11-10T12:49:17.845Z,15.05
2017-11-10T12:51:45.540Z,20.67
2017-11-10T12:54:13.199Z,17.02
2017-11-10T12:56:40.946Z,17.15
2017-11-10T12:59:09.339Z,19.92
2017-11-10T13:01:37.012Z,21.92
2017-11-10T13:04:04.668Z,18.00
2017-11-10T13:06:33.079Z,18.10
2017-11-10T13:09:00.726Z,17.37
2017-11-10T13:11:28.383Z,20.48
2017-11-10T13:13:56.021Z,17.45
2017-11-10T13:16:24.465Z,18.77
2017-11-10T13:18:52.181Z,19.42
2017-11-10T13:21:20.275Z,11.93
2017-11-10T13:23:48.004Z,16.15
2017-11-10T13:26:15.673Z,17.08
2017-11-10T13:28:43.331Z,13.75
2017-11-10T13:31:11.814Z,16.10
2017-11-10T13:33:39.515Z,14.48
2017-11-10T13:36:07.475Z,18.27
2017-11-10T13:38:35.148Z,12.27
2017-11-10T13:41:02.777Z,15.40
2017-11-10T13:43:30.388Z,14.87
2017-11-10T13:45:57.970Z,13.35
2017-11-10T13:48:27.037Z,12.02
2017-11-10T13:50:54.721Z,9.02
2017-11-10T13:53:22.398Z,12.57
2017-11-10T13:55:50.791Z,8.75
2017-11-10T13:58:18.403Z,13.35
2017-11-10T14:00:46.122Z,12.85
2017-11-10T14:03:13.868Z,12.65
2017-11-10T14:05:42.466Z,3.70
2017-11-10T14:08:10.103Z,6.85
2017-11-10T14:10:38.597Z,11.60
2017-11-10T14:13:06.958Z,6.60
2017-11-10T14:15:34.598Z,5.85
2017-11-10T14:18:02.441Z,5.93
2017-11-10T14:20:30.182Z,8.13
2017-11-10T14:22:57.843Z,2.90
2017-11-10T14:25:25.504Z,4.15
2017-11-10T14:27:53.145Z,6.55
2017-11-10T14:30:21.581Z,3.55
2017-11-10T14:32:50.105Z,8.80
2017-11-10T14:35:18.478Z,7.05
2017-11-10T14:37:46.925Z,6.20
2017-11-10T14:40:14.537Z,3.72
2017-11-10T14:42:42.203Z,13.27
2017-11-10T14:45:09.862Z,4.10
2017-11-10T14:47:37.503Z,5.90
2017-11-10T14:50:05.103Z,4.45
2017-11-10T14:52:32.752Z,4.70
2017-11-10T14:55:00.433Z,9.63
2017-11-10T14:57:28.050Z,10.00
2017-11-10T14:59:56.421Z,5.25
2017-11-10T15:02:24.022Z,5.65
2017-11-10T15:04:51.659Z,11.27
2017-11-10T15:07:19.414Z,8.63
2017-11-10T15:09:47.907Z,6.65
2017-11-10T15:12:15.497Z,7.57
2017-11-10T15:14:43.932Z,6.18
2017-11-10T15:17:11.563Z,5.32
2017-11-10T15:19:39.242Z,8.40
2017-11-10T15:22:07.737Z,2.85
2017-11-10T15:24:35.788Z,7.50
2017-11-10T15:27:03.418Z,6.57
2017-11-10T15:29:31.023Z,5.35
2017-11-10T15:31:58.728Z,6.43
2017-11-10T15:34:27.713Z,4.40
2017-11-10T15:36:55.345Z,3.97
2017-11-10T15:39:23.031Z,7.87
2017-11-10T15:41:52.534Z,9.55
2017-11-10T15:44:20.285Z,8.05
2017-11-10T15:46:47.951Z,5.12
2017-11-10T15:49:15.669Z,6.20
2017-11-10T15:51:43.362Z,6.93
2017-11-10T15:54:11.231Z,7.05
2017-11-10T15:56:38.853Z,17.10
2017-11-10T15:59:06.615Z,8.82
2017-11-10T16:01:35.233Z,4.68
2017-11-10T16:04:02.886Z,10.02
2017-11-10T16:06:30.474Z,8.02
2017-11-10T16:08:58.811Z,9.15
2017-11-10T16:11:26.409Z,3.67
2017-11-10T16:13:54.003Z,7.53
2017-11-10T16:16:22.354Z,8.63
2017-11-10T16:18:50.021Z,7.62
2017-11-10T16:21:17.592Z,7.50
2017-11-10T16:23:45.990Z,6.25
2017-11-10T16:26:13.681Z,7.57
2017-11-10T16:28:41.360Z,4.28
2017-11-10T16:31:09.060Z,13.38
2017-11-10T16:33:36.724Z,5.95
2017-11-10T16:36:04.386Z,6.80
2017-11-10T16:38:32.662Z,9.00
2017-11-10T16:41:01.046Z,5.65
2017-11-10T16:43:28.741Z,4.60
2017-11-10T16:45:56.404Z,3.00
2017-11-10T16:48:23.997Z,3.05
2017-11-10T16:50:51.711Z,6.95
2017-11-10T16:53:19.701Z,16.12
2017-11-10T16:55:47.368Z,4.65
2017-11-10T16:58:15.073Z,7.20
2017-11-10T17:00:42.658Z,4.97
2017-11-10T17:03:10.386Z,8.25
2017-11-10T17:05:38.199Z,2.10
2017-11-10T17:08:05.920Z,4.43
2017-11-10T17:10:33.533Z,4.93
2017-11-10T17:13:01.254Z,8.75
2017-11-10T17:15:29.049Z,7.87
2017-11-10T17:17:56.759Z,4.60
2017-11-10T17:20:25.253Z,6.55
2017-11-10T17:22:52.843Z,4.97
2017-11-10T17:25:21.289Z,6.55
2017-11-10T17:27:49.062Z,5.37
2017-11-10T17:30:16.645Z,6.35
2017-11-10T17:32:44.304Z,9.93
2017-11-10T17:35:12.007Z,6.65
2017-11-10T17:37:39.675Z,6.20
2017-11-10T17:40:07.375Z,7.30
2017-11-10T17:42:34.996Z,9.85
2017-11-10T17:45:02.728Z,8.82
2017-11-10T17:47:31.349Z,10.20
2017-11-10T17:49:58.988Z,11.88
2017-11-10T17:52:26.695Z,9.40
2017-11-10T17:54:54.382Z,11.75
2017-11-10T17:57:22.891Z,8.15
2017-11-10T17:59:50.543Z,11.00
2017-11-10T18:02:18.218Z,12.82
2017-11-10T18:04:45.930Z,11.57
2017-11-10T18:07:13.621Z,7.57
2017-11-10T18:09:42.030Z,21.02
2017-11-10T18:12:09.662Z,13.77
2017-11-10T18:14:37.413Z,13.85
2017-11-10T18:17:06.610Z,8.82
2017-11-10T18:19:34.993Z,15.50
2017-11-10T18:22:04.240Z,10.85
2017-11-10T18:24:31.998Z,21.30
2017-11-10T18:26:59.720Z,12.02
2017-11-10T18:29:27.981Z,11.05
2017-11-10T18:31:55.582Z,15.05
2017-11-10T18:34:23.233Z,19.40
2017-11-10T18:36:50.909Z,15.85
2017-11-10T18:39:18.647Z,17.83
2017-11-10T18:41:47.764Z,16.00
2017-11-10T18:44:15.334Z,25.98
2017-11-10T18:46:43.062Z,16.98
2017-11-10T18:49:17.224Z,15.85
2017-11-10T18:51:44.888Z,27.48
2017-11-10T18:54:12.554Z,13.80
2017-11-10T18:56:40.208Z,9.98
2017-11-10T18:59:07.872Z,12.93
2017-11-10T19:01:36.076Z,15.98
2017-11-10T19:04:03.769Z,14.70
2017-11-10T19:06:31.420Z,15.93
2017-11-10T19:08:59.137Z,20.85
2017-11-10T19:11:27.110Z,19.70
2017-11-10T19:13:54.800Z,15.32
2017-11-10T19:16:22.444Z,16.67
2017-11-10T19:18:50.167Z,26.02
2017-11-10T19:21:17.781Z,11.48
2017-11-10T19:23:45.493Z,14.07
2017-11-10T19:26:13.838Z,8.00
2017-11-10T19:28:41.506Z,11.93
2017-11-10T19:31:09.137Z,14.80
2017-11-10T19:33:37.816Z,12.23
2017-11-10T19:36:05.484Z,6.05
2017-11-10T19:38:33.064Z,15.70
2017-11-10T19:41:00.819Z,11.98
2017-11-10T19:43:28.479Z,10.63
2017-11-10T19:45:56.128Z,18.40
2017-11-10T19:48:23.780Z,18.12
2017-11-10T19:50:51.385Z,10.57
2017-11-10T19:53:18.979Z,13.93
2017-11-10T19:55:47.373Z,14.52
2017-11-10T19:58:15.012Z,14.05
2017-11-10T20:00:43.643Z,14.32
2017-11-10T20:03:11.888Z,11.15
2017-11-10T20:05:40.427Z,15.93
2017-11-10T20:08:08.911Z,16.52
2017-11-10T20:10:36.507Z,9.77
2017-11-10T20:13:04.205Z,20.40
2017-11-10T20:15:31.828Z,12.48
2017-11-10T20:17:59.482Z,10.65
2017-11-10T20:20:27.097Z,14.15
2017-11-10T20:22:54.784Z,14.95
2017-11-10T20:25:22.362Z,24.55
2017-11-10T20:27:49.989Z,7.10
2017-11-10T20:30:18.351Z,14.73
2017-11-10T20:32:46.778Z,9.52
2017-11-10T20:35:15.160Z,14.68
2017-11-10T20:37:43.163Z,9.68
2017-11-10T20:40:11.511Z,11.95
2017-11-10T20:42:39.149Z,16.12
2017-11-10T20:45:06.831Z,19.30
2017-11-10T20:47:34.506Z,8.82
2017-11-10T20:50:02.137Z,21.67
2017-11-10T20:52:29.757Z,16.98
2017-11-10T20:54:58.176Z,9.85
2017-11-10T20:57:25.840Z,15.50
2017-11-10T20:59:53.434Z,12.00
2017-11-10T21:02:21.857Z,13.23
2017-11-10T21:04:49.499Z,7.15
2017-11-10T21:07:17.166Z,17.67
2017-11-10T21:09:44.820Z,12.02
2017-11-10T21:12:12.467Z,12.23
2017-11-10T21:14:40.883Z,9.35
2017-11-10T21:17:08.482Z,8.00
2017-11-10T21:19:36.060Z,17.55
2017-11-10T21:22:04.723Z,17.10
2017-11-10T21:24:32.305Z,12.35
2017-11-10T21:26:59.951Z,5.68
2017-11-10T21:29:27.640Z,13.70
2017-11-10T21:31:55.302Z,26.87
2017-11-10T21:34:23.643Z,58.20
2017-11-10T21:36:51.459Z,63.03
2017-11-10T21:39:19.163Z,74.82
2017-11-10T21:41:46.811Z,33.50
2017-11-10T21:44:14.499Z,146.93
2017-11-10T21:46:42.131Z,11.68
2017-11-10T21:49:09.766Z,6.85
2017-11-10T21:51:38.003Z,21.20
2017-11-10T21:54:05.627Z,12.32
2017-11-10T21:56:33.349Z,13.20
2017-11-10T21:59:01.809Z,7.45
2017-11-10T22:01:29.573Z,13.32
2017-11-10T22:03:57.264Z,12.95
2017-11-10T22:06:24.971Z,12.25
2017-11-10T22:08:52.732Z,10.23
2017-11-10T22:11:20.507Z,6.45
2017-11-10T22:13:48.179Z,9.48
2017-11-10T22:16:15.936Z,10.88
2017-11-10T22:18:43.789Z,11.75
2017-11-10T22:21:11.420Z,11.27
2017-11-10T22:23:39.150Z,6.40
2017-11-10T22:26:06.811Z,15.10
2017-11-10T22:28:34.402Z,8.88
2017-11-10T22:31:02.191Z,11.60
2017-11-10T22:33:29.783Z,18.75
2017-11-10T22:35:58.819Z,18.58
2017-11-10T22:38:27.303Z,8.88
2017-11-10T22:40:54.944Z,18.83
2017-11-10T22:43:22.765Z,5.07
2017-11-10T22:45:50.432Z,17.75
2017-11-10T22:48:18.060Z,13.55
2017-11-10T22:50:46.755Z,11.25
2017-11-10T22:53:14.406Z,8.13
2017-11-10T22:55:42.106Z,7.30
2017-11-10T22:58:10.051Z,15.10
2017-11-10T23:00:37.939Z,13.85
2017-11-10T23:03:05.880Z,9.45
2017-11-10T23:05:33.682Z,15.38
2017-11-10T23:08:01.320Z,5.60
2017-11-10T23:10:29.202Z,12.57
2017-11-10T23:12:56.920Z,12.52
2017-11-10T23:15:24.771Z,11.70
2017-11-10T23:17:53.157Z,10.25
2017-11-10T23:20:20.792Z,7.62
2017-11-10T23:22:48.504Z,7.82
2017-11-10T23:25:16.560Z,7.10
2017-11-10T23:27:44.156Z,84.25
2017-11-10T23:30:11.805Z,8.93
2017-11-10T23:32:39.382Z,5.53
2017-11-10T23:35:08.291Z,9.93
2017-11-10T23:37:37.642Z,7.72
2017-11-10T23:40:05.254Z,16.42
2017-11-10T23:42:33.048Z,9.20
2017-11-10T23:45:01.523Z,10.40
2017-11-10T23:47:29.124Z,6.07
2017-11-10T23:49:56.725Z,15.15
2017-11-10T23:52:24.339Z,11.48
2017-11-10T23:54:52.034Z,7.72
2017-11-10T23:57:19.631Z,5.45
2017-11-10T23:59:47.289Z,9.63
